createdAt,value
2018-06-04T00:02:29.923Z,18.74
2018-06-04T00:03:29.892Z,18.83
2018-06-04T00:04:29.849Z,18.74
2018-06-04T00:05:29.775Z,18.78
2018-06-04T00:06:29.659Z,18.71
2018-06-04T00:07:29.577Z,18.60
2018-06-04T00:08:29.472Z,18.69
2018-06-04T00:09:29.481Z,18.71
2018-06-04T00:10:29.299Z,18.56
2018-06-04T00:11:29.293Z,18.53
2018-06-04T00:12:29.136Z,18.41
2018-06-04T00:13:29.141Z,18.39
2018-06-04T00:14:28.980Z,18.35
2018-06-04T00:15:29.006Z,18.46
2018-06-04T00:16:28.855Z,18.28
2018-06-04T00:17:28.821Z,18.28
2018-06-04T00:18:28.691Z,18.28
2018-06-04T00:21:10.953Z,18.23
2018-06-04T00:23:52.968Z,18.16
2018-06-04T00:25:13.857Z,18.17
2018-06-04T00:25:52.763Z,18.11
2018-06-04T00:26:52.739Z,18.13
2018-06-04T00:27:52.615Z,18.14
2018-06-04T00:28:53.608Z,18.10
2018-06-04T00:29:52.460Z,18.14
2018-06-04T00:30:52.498Z,18.13
2018-06-04T00:31:52.299Z,18.10
2018-06-04T00:32:52.268Z,18.02
2018-06-04T00:52:14.856Z,17.91
2018-06-04T00:53:14.689Z,17.86
2018-06-04T00:55:56.959Z,17.96
2018-06-04T00:57:17.838Z,17.86
2018-06-04T00:57:56.772Z,17.92
2018-06-04T01:00:38.947Z,17.84
2018-06-04T01:03:20.929Z,17.83
2018-06-04T01:04:20.938Z,17.73
2018-06-04T01:05:20.779Z,17.68
2018-06-04T01:06:21.815Z,17.73
2018-06-04T01:07:20.651Z,17.62
2018-06-04T01:29:00.470Z,17.66
2018-06-04T01:30:00.431Z,17.63
2018-06-04T01:31:00.310Z,17.70
2018-06-04T01:32:00.334Z,17.73
2018-06-04T01:33:00.167Z,17.65
2018-06-04T01:34:00.139Z,17.73
2018-06-04T01:35:00.005Z,17.63
2018-06-04T01:35:59.968Z,17.63
2018-06-04T01:36:59.890Z,17.57
2018-06-04T01:37:59.905Z,17.66
2018-06-04T01:38:59.720Z,17.58
2018-06-04T01:39:59.673Z,17.68
2018-06-04T01:40:59.515Z,17.65
2018-06-04T01:41:59.484Z,17.66
2018-06-04T01:42:59.391Z,17.68
2018-06-04T01:43:59.391Z,17.70
2018-06-04T01:44:59.204Z,17.71
2018-06-04T01:45:59.195Z,17.60
2018-06-04T01:46:59.053Z,17.62
2018-06-04T01:47:59.050Z,17.68
2018-06-04T01:48:58.897Z,17.63
2018-06-04T01:49:58.924Z,17.60
2018-06-04T01:50:58.741Z,17.58
2018-06-04T01:51:58.733Z,17.49
2018-06-04T01:52:58.618Z,17.66
2018-06-04T01:53:59.609Z,17.62
2018-06-04T01:54:58.465Z,17.60
2018-06-04T01:55:58.491Z,17.65
2018-06-04T01:56:58.311Z,17.70
2018-06-04T01:59:40.524Z,17.70
2018-06-04T02:00:40.466Z,17.70
2018-06-04T02:01:40.285Z,17.66
2018-06-04T02:02:40.273Z,17.70
2018-06-04T02:03:40.136Z,17.68
2018-06-04T02:04:40.184Z,17.83
2018-06-04T02:05:40.015Z,17.89
2018-06-04T02:06:39.988Z,17.99
2018-06-04T02:07:39.816Z,18.04
2018-06-04T02:08:39.794Z,18.05
2018-06-04T02:09:39.672Z,18.10
2018-06-04T02:28:01.992Z,18.28
2018-06-04T02:29:01.953Z,18.41
2018-06-04T02:30:01.844Z,18.39
2018-06-04T02:31:01.811Z,18.44
2018-06-04T02:32:01.666Z,18.31
2018-06-04T02:33:01.664Z,18.34
2018-06-04T02:34:01.494Z,18.32
2018-06-04T02:35:01.507Z,18.44
2018-06-04T02:36:01.359Z,18.38
2018-06-04T02:37:01.322Z,18.38
2018-06-04T02:38:01.180Z,18.41
2018-06-04T02:39:01.192Z,18.34
2018-06-04T02:40:01.031Z,18.28
2018-06-04T02:41:00.999Z,18.23
2018-06-04T02:42:00.907Z,18.19
2018-06-04T02:43:00.902Z,18.19
2018-06-04T02:44:00.705Z,18.13
2018-06-04T02:45:00.737Z,18.04
2018-06-04T02:46:00.571Z,18.09
2018-06-04T02:47:00.529Z,18.01
2018-06-04T02:48:00.404Z,17.89
2018-06-04T02:49:00.437Z,17.94
2018-06-04T02:50:00.347Z,17.86
2018-06-04T02:51:00.276Z,17.76
2018-06-04T02:52:00.122Z,17.74
2018-06-04T02:53:00.052Z,17.66
2018-06-04T02:53:59.923Z,17.63
2018-06-04T02:54:59.963Z,17.71
2018-06-04T02:55:59.775Z,17.68
2018-06-04T02:56:59.805Z,17.60
2018-06-04T02:57:59.620Z,17.65
2018-06-04T02:58:59.580Z,17.65
2018-06-04T02:59:59.464Z,17.73
2018-06-04T03:00:59.494Z,17.76
2018-06-04T03:01:59.333Z,17.83
2018-06-04T03:02:59.298Z,17.81
2018-06-04T03:03:59.144Z,17.94
2018-06-04T03:04:59.111Z,17.92
2018-06-04T03:05:58.983Z,17.89
2018-06-04T03:06:59.019Z,17.94
2018-06-04T03:07:58.852Z,17.98
2018-06-04T03:08:58.831Z,17.96
2018-06-04T03:09:58.674Z,17.91
2018-06-04T03:10:58.637Z,17.92
2018-06-04T03:11:58.600Z,17.94
2018-06-04T03:12:58.583Z,17.94
2018-06-04T03:13:58.355Z,18.01
2018-06-04T03:14:58.354Z,17.98
2018-06-04T03:15:58.199Z,18.13
2018-06-04T03:16:58.162Z,18.14
2018-06-04T03:17:58.066Z,18.19
2018-06-04T03:18:58.084Z,18.23
2018-06-04T03:19:57.952Z,18.32
2018-06-04T03:20:57.886Z,18.31
2018-06-04T03:21:57.754Z,18.26
2018-06-04T03:22:57.727Z,18.28
2018-06-04T03:23:57.602Z,18.26
2018-06-04T03:24:57.627Z,18.34
2018-06-04T03:25:57.419Z,18.46
2018-06-04T03:26:57.409Z,18.53
2018-06-04T03:27:57.281Z,18.53
2018-06-04T03:28:57.220Z,18.56
2018-06-04T03:29:57.110Z,18.53
2018-06-04T03:30:57.198Z,18.62
2018-06-04T03:31:56.978Z,18.60
2018-06-04T03:32:56.971Z,18.69
2018-06-04T03:33:56.798Z,18.71
2018-06-04T03:34:56.803Z,18.62
2018-06-04T03:35:56.636Z,18.66
2018-06-04T03:38:38.500Z,18.71
2018-06-04T03:39:38.451Z,18.69
2018-06-04T03:40:38.327Z,18.78
2018-06-04T03:41:38.358Z,18.82
2018-06-04T03:42:38.181Z,18.83
2018-06-04T03:43:38.215Z,18.90
2018-06-04T03:44:37.998Z,18.79
2018-06-04T03:45:37.988Z,18.83
2018-06-04T03:46:37.851Z,18.79
2018-06-04T03:47:37.904Z,18.76
2018-06-04T03:48:37.710Z,18.87
2018-06-04T03:49:37.714Z,18.79
2018-06-04T03:50:37.537Z,18.79
2018-06-04T03:51:37.502Z,18.86
2018-06-04T03:52:37.389Z,18.89
2018-06-04T04:07:00.780Z,18.84
2018-06-04T04:08:00.622Z,18.89
2018-06-04T04:09:00.550Z,18.82
2018-06-04T04:10:00.555Z,18.83
2018-06-04T04:11:00.437Z,18.87
2018-06-04T04:12:00.288Z,18.97
2018-06-04T04:13:00.377Z,18.91
2018-06-04T04:14:00.101Z,18.91
2018-06-04T04:15:00.091Z,18.96
2018-06-04T04:15:59.980Z,19.01
2018-06-04T04:16:59.996Z,18.94
2018-06-04T04:17:59.793Z,19.09
2018-06-04T04:20:42.027Z,19.09
2018-06-04T04:21:42.006Z,19.02
2018-06-04T04:22:41.823Z,19.07
2018-06-04T04:23:41.843Z,19.21
2018-06-04T04:24:41.696Z,19.02
2018-06-04T04:25:41.653Z,19.07
2018-06-04T04:26:41.522Z,19.05
2018-06-04T04:27:41.573Z,19.05
2018-06-04T04:28:41.355Z,19.06
2018-06-04T04:31:23.517Z,19.15
2018-06-04T04:32:23.435Z,19.13
2018-06-04T04:33:23.335Z,19.24
2018-06-04T04:34:23.354Z,19.13
2018-06-04T04:35:23.188Z,19.25
2018-06-04T04:36:24.228Z,19.31
2018-06-04T04:37:23.026Z,19.35
2018-06-04T04:38:23.073Z,19.27
2018-06-04T04:39:22.877Z,19.30
2018-06-04T04:40:23.092Z,19.40
2018-06-04T04:41:22.759Z,19.45
2018-06-04T04:42:23.315Z,19.35
2018-06-04T04:43:22.573Z,19.40
2018-06-04T04:46:04.495Z,19.31
2018-06-04T04:47:04.540Z,19.31
2018-06-04T04:48:04.333Z,19.24
2018-06-04T04:49:04.303Z,19.32
2018-06-04T04:50:04.182Z,19.38
2018-06-04T04:51:04.217Z,19.25
2018-06-04T04:52:04.057Z,19.31
2018-06-04T04:53:04.023Z,19.31
2018-06-04T04:54:03.880Z,19.46
2018-06-04T04:55:03.860Z,19.47
2018-06-04T04:56:03.721Z,19.52
2018-06-04T04:57:03.795Z,19.61
2018-06-04T04:58:03.556Z,19.53
2018-06-04T04:59:03.552Z,19.60
2018-06-04T05:00:03.397Z,19.58
2018-06-04T05:01:03.403Z,19.65
2018-06-04T05:02:03.304Z,19.61
2018-06-04T05:04:45.505Z,19.72
2018-06-04T05:05:45.478Z,19.72
2018-06-04T05:06:45.347Z,19.80
2018-06-04T05:07:45.325Z,19.92
2018-06-04T05:08:45.197Z,19.92
2018-06-04T05:11:27.505Z,20.01
2018-06-04T05:12:27.547Z,20.08
2018-06-04T05:13:27.373Z,20.17
2018-06-04T05:14:27.326Z,20.19
2018-06-04T05:15:27.195Z,20.20
2018-06-04T05:16:27.217Z,20.19
2018-06-04T05:17:27.042Z,20.16
2018-06-04T05:18:27.033Z,20.25
2018-06-04T05:19:26.947Z,20.16
2018-06-04T05:20:26.937Z,20.19
2018-06-04T05:21:26.737Z,20.22
2018-06-04T05:24:09.050Z,20.40
2018-06-04T05:26:51.018Z,20.50
2018-06-04T05:27:51.046Z,20.35
2018-06-04T05:28:50.853Z,20.40
2018-06-04T05:29:51.908Z,20.46
2018-06-04T05:30:50.698Z,20.48
2018-06-04T05:31:50.741Z,20.56
2018-06-04T05:32:50.545Z,20.57
2018-06-04T05:33:51.554Z,20.54
2018-06-04T05:34:50.416Z,20.66
2018-06-04T05:52:30.539Z,21.37
2018-06-04T05:53:31.499Z,21.36
2018-06-04T05:54:30.365Z,21.38
2018-06-04T05:57:12.536Z,21.49
2018-06-04T05:58:12.555Z,21.59
2018-06-04T05:59:12.360Z,21.64
2018-06-04T06:00:12.368Z,21.63
2018-06-04T06:01:12.228Z,21.73
2018-06-04T06:03:54.520Z,21.79
2018-06-04T06:04:56.540Z,21.89
2018-06-04T06:05:54.377Z,21.77
2018-06-04T06:06:54.426Z,21.90
2018-06-04T06:07:54.224Z,21.75
2018-06-04T06:08:54.216Z,21.91
2018-06-04T06:09:54.093Z,21.94
2018-06-04T06:10:54.092Z,22.02
2018-06-04T06:11:53.923Z,21.98
2018-06-04T06:12:53.904Z,21.98
2018-06-04T06:13:53.769Z,21.91
2018-06-04T06:16:36.054Z,22.08
2018-06-04T06:19:18.070Z,22.20
2018-06-04T06:20:18.030Z,22.21
2018-06-04T06:21:17.886Z,22.12
2018-06-04T06:22:18.894Z,22.20
2018-06-04T06:23:17.710Z,22.24
2018-06-04T06:26:00.074Z,22.66
2018-06-04T06:28:42.070Z,24.83
2018-06-04T06:31:24.069Z,26.69
2018-06-04T06:32:24.039Z,26.76
2018-06-04T06:33:23.899Z,27.09
2018-06-04T06:34:23.879Z,27.25
2018-06-04T06:35:23.749Z,27.12
2018-06-04T06:36:23.670Z,27.01
2018-06-04T06:37:23.599Z,27.12
2018-06-04T06:38:23.572Z,27.52
2018-06-04T06:39:23.462Z,27.74
2018-06-04T06:40:23.475Z,27.49
2018-06-04T06:41:23.298Z,27.77
2018-06-04T06:42:23.276Z,27.72
2018-06-04T06:43:23.187Z,28.03
2018-06-04T06:44:23.198Z,27.84
2018-06-04T06:45:23.002Z,27.69
2018-06-04T06:47:47.550Z,27.11
2018-06-04T06:48:48.555Z,27.59
2018-06-04T06:49:47.390Z,28.11
2018-06-04T06:50:48.464Z,28.52
2018-06-04T06:51:47.251Z,28.36
2018-06-04T06:54:29.550Z,29.08
2018-06-04T06:55:29.579Z,28.92
2018-06-04T06:57:29.422Z,28.80
2018-06-04T06:58:29.267Z,28.87
2018-06-04T06:59:29.254Z,28.89
2018-06-04T07:00:29.162Z,28.67
2018-06-04T07:01:29.146Z,28.88
2018-06-04T07:02:28.985Z,28.52
2018-06-04T07:03:28.965Z,28.48
2018-06-04T07:04:28.850Z,28.74
2018-06-04T07:05:28.890Z,28.40
2018-06-04T07:06:28.701Z,28.42
2018-06-04T07:07:28.711Z,28.97
2018-06-04T07:08:28.559Z,28.83
2018-06-04T07:09:28.511Z,28.60
2018-06-04T07:10:28.421Z,28.97
2018-06-04T07:13:10.556Z,29.47
2018-06-04T07:14:11.608Z,29.55
2018-06-04T07:15:10.473Z,29.71
2018-06-04T07:16:10.540Z,30.13
2018-06-04T07:17:10.273Z,29.92
2018-06-04T07:19:52.591Z,29.49
2018-06-04T07:20:52.561Z,29.51
2018-06-04T07:21:52.407Z,29.08
2018-06-04T07:22:52.432Z,29.08
2018-06-04T07:23:52.282Z,28.87
2018-06-04T07:24:52.259Z,28.23
2018-06-04T07:25:52.139Z,28.50
2018-06-04T07:26:52.148Z,29.20
2018-06-04T07:27:52.017Z,29.25
2018-06-04T07:28:52.061Z,29.49
2018-06-04T07:29:51.919Z,30.00
2018-06-04T07:32:34.124Z,28.62
2018-06-04T07:35:20.572Z,28.88
2018-06-04T07:36:20.594Z,29.17
2018-06-04T07:37:20.412Z,29.63
2018-06-04T07:40:02.569Z,28.92
2018-06-04T07:41:02.609Z,29.17
2018-06-04T07:42:02.440Z,28.23
2018-06-04T07:45:46.701Z,29.52
2018-06-04T07:46:45.485Z,29.26
2018-06-04T07:47:45.517Z,29.11
2018-06-04T07:48:45.434Z,29.55
2018-06-04T07:49:45.339Z,29.17
2018-06-04T07:50:45.222Z,29.18
2018-06-04T07:51:45.242Z,29.54
2018-06-04T07:52:45.084Z,29.14
2018-06-04T07:55:27.102Z,29.15
2018-06-04T07:57:51.566Z,29.41
2018-06-04T08:00:33.607Z,30.11
2018-06-04T08:01:33.563Z,29.51
2018-06-04T08:02:33.426Z,29.82
2018-06-04T08:04:58.098Z,29.25
2018-06-04T08:23:48.828Z,28.09
2018-06-04T08:24:48.834Z,28.06
2018-06-04T08:25:48.687Z,28.24
2018-06-04T08:28:30.618Z,29.37
2018-06-04T08:29:30.601Z,29.73
2018-06-04T08:30:30.475Z,30.10
2018-06-04T08:31:30.485Z,29.86
2018-06-04T08:32:30.301Z,29.39
2018-06-04T08:33:30.383Z,29.33
2018-06-04T08:34:30.162Z,29.10
2018-06-04T08:37:12.164Z,30.42
2018-06-04T08:39:54.075Z,29.88
2018-06-04T08:40:54.065Z,29.54
2018-06-04T08:41:53.978Z,30.25
2018-06-04T08:42:53.982Z,30.97
2018-06-04T08:43:53.814Z,31.09
2018-06-04T08:44:53.779Z,31.30
2018-06-04T08:45:53.700Z,31.32
2018-06-04T08:46:53.733Z,31.47
2018-06-04T08:47:53.571Z,30.82
2018-06-04T08:48:53.601Z,29.66
2018-06-04T08:49:53.442Z,29.92
2018-06-04T08:52:35.791Z,30.81
2018-06-04T08:53:35.619Z,31.31
2018-06-04T08:54:35.461Z,30.40
2018-06-04T08:55:35.423Z,31.30
2018-06-04T08:56:35.333Z,30.90
2018-06-04T08:57:35.362Z,29.71
2018-06-04T08:58:35.191Z,30.04
2018-06-04T08:59:35.264Z,30.75
2018-06-04T09:00:35.089Z,31.27
2018-06-04T09:01:35.049Z,31.41
2018-06-04T09:02:34.948Z,30.49
2018-06-04T09:03:34.972Z,29.44
2018-06-04T09:04:34.794Z,29.86
2018-06-04T09:07:17.097Z,31.01
2018-06-04T09:08:17.135Z,31.64
2018-06-04T09:09:16.971Z,31.72
2018-06-04T09:10:16.990Z,31.99
2018-06-04T09:11:16.842Z,31.88
2018-06-04T09:12:16.791Z,31.18
2018-06-04T09:13:16.734Z,31.18
2018-06-04T09:15:58.594Z,31.91
2018-06-04T09:16:58.605Z,32.02
2018-06-04T09:17:58.506Z,32.36
2018-06-04T09:18:59.486Z,32.50
2018-06-04T09:19:58.354Z,32.32
2018-06-04T09:20:58.327Z,31.88
2018-06-04T09:21:58.254Z,32.14
2018-06-04T09:22:58.157Z,31.92
2018-06-04T09:23:58.281Z,31.99
2018-06-04T09:24:58.020Z,32.41
2018-06-04T09:25:57.967Z,32.47
2018-06-04T09:26:57.958Z,32.49
2018-06-04T09:27:57.818Z,32.62
2018-06-04T09:28:57.912Z,32.65
2018-06-04T09:29:57.712Z,31.54
2018-06-04T09:30:57.789Z,30.79
2018-06-04T09:31:57.586Z,30.64
2018-06-04T09:32:57.576Z,31.09
2018-06-04T09:33:57.474Z,31.20
2018-06-04T09:34:57.507Z,31.49
2018-06-04T09:35:57.317Z,31.88
2018-06-04T09:36:57.300Z,31.54
2018-06-04T09:37:57.198Z,30.22
2018-06-04T09:38:57.257Z,29.99
2018-06-04T09:39:57.085Z,30.42
2018-06-04T09:42:39.109Z,30.98
2018-06-04T09:43:39.212Z,31.71
2018-06-04T09:44:38.977Z,32.07
2018-06-04T09:45:39.060Z,32.46
2018-06-04T09:46:38.845Z,31.65
2018-06-04T09:47:38.850Z,31.85
2018-06-04T09:48:38.823Z,32.34
2018-06-04T09:51:20.610Z,31.22
2018-06-04T09:52:20.672Z,31.53
2018-06-04T09:53:20.474Z,31.34
2018-06-04T09:54:20.483Z,31.59
2018-06-04T09:55:20.356Z,31.85
2018-06-04T09:56:20.426Z,31.49
2018-06-04T09:57:20.232Z,31.12
2018-06-04T09:58:20.177Z,31.19
2018-06-04T09:59:20.180Z,31.85
2018-06-04T10:02:02.138Z,32.80
2018-06-04T10:03:02.212Z,32.93
2018-06-04T10:04:01.987Z,31.94
2018-06-04T10:05:03.090Z,31.88
2018-06-04T10:06:01.863Z,31.53
2018-06-04T10:07:01.920Z,30.96
2018-06-04T10:08:01.738Z,30.38
2018-06-04T10:10:43.807Z,30.57
2018-06-04T10:11:43.676Z,30.96
2018-06-04T10:12:43.494Z,30.68
2018-06-04T10:13:43.441Z,31.30
2018-06-04T10:14:43.398Z,31.82
2018-06-04T10:15:43.329Z,31.75
2018-06-04T10:16:43.238Z,31.98
2018-06-04T10:17:43.274Z,32.35
2018-06-04T10:18:43.112Z,33.02
2018-06-04T10:19:43.176Z,33.34
2018-06-04T10:20:42.980Z,32.40
2018-06-04T10:21:42.919Z,31.87
2018-06-04T10:22:42.883Z,30.81
2018-06-04T10:23:42.811Z,30.63
2018-06-04T10:24:42.735Z,30.18
2018-06-04T10:25:43.689Z,30.46
2018-06-04T10:26:42.607Z,31.05
2018-06-04T10:27:42.595Z,31.64
2018-06-04T10:28:42.477Z,31.92
2018-06-04T10:29:42.496Z,32.16
2018-06-04T10:30:42.395Z,32.25
2018-06-04T10:31:42.411Z,31.90
2018-06-04T10:32:42.224Z,32.17
2018-06-04T10:33:42.229Z,31.76
2018-06-04T10:34:42.187Z,30.90
2018-06-04T10:35:42.068Z,30.54
2018-06-04T10:36:41.969Z,30.81
2018-06-04T10:37:42.030Z,31.25
2018-06-04T10:38:41.963Z,30.70
2018-06-04T10:39:41.822Z,30.06
2018-06-04T10:40:41.766Z,29.60
2018-06-04T10:43:23.630Z,31.04
2018-06-04T10:46:05.667Z,31.40
2018-06-04T10:47:05.670Z,31.34
2018-06-04T10:48:05.516Z,32.12
2018-06-04T10:49:05.458Z,32.19
2018-06-04T10:50:05.378Z,31.78
2018-06-04T10:51:05.418Z,31.99
2018-06-04T10:52:05.247Z,32.62
2018-06-04T10:53:05.218Z,32.34
2018-06-04T10:54:05.117Z,31.79
2018-06-04T10:55:05.099Z,31.50
2018-06-04T10:56:05.011Z,31.78
2018-06-04T10:57:05.985Z,32.44
2018-06-04T10:58:04.875Z,31.99
2018-06-04T10:59:04.912Z,31.88
2018-06-04T11:00:04.752Z,32.16
2018-06-04T11:01:04.737Z,32.05
2018-06-04T11:02:04.692Z,31.62
2018-06-04T11:03:04.633Z,31.90
2018-06-04T11:04:04.557Z,32.31
2018-06-04T11:05:04.545Z,32.65
2018-06-04T11:06:04.385Z,32.96
2018-06-04T11:07:04.384Z,33.20
2018-06-04T11:08:04.246Z,32.93
2018-06-04T11:09:04.265Z,32.81
2018-06-04T11:10:04.118Z,31.62
2018-06-04T11:11:04.167Z,31.37
2018-06-04T11:12:04.017Z,30.97
2018-06-04T11:14:46.181Z,31.75
2018-06-04T11:15:46.171Z,32.03
2018-06-04T11:16:46.055Z,31.99
2018-06-04T11:17:46.004Z,32.54
2018-06-04T11:18:45.930Z,32.07
2018-06-04T11:19:45.891Z,32.36
2018-06-04T11:20:45.765Z,32.13
2018-06-04T11:21:45.709Z,32.49
2018-06-04T11:22:45.671Z,32.32
2018-06-04T11:23:45.639Z,31.95
2018-06-04T11:24:45.515Z,32.25
2018-06-04T11:27:27.688Z,31.62
2018-06-04T11:28:27.609Z,31.62
2018-06-04T11:29:27.513Z,31.35
2018-06-04T11:30:27.554Z,31.28
2018-06-04T11:31:27.409Z,30.97
2018-06-04T11:32:27.530Z,30.78
2018-06-04T11:33:27.293Z,31.64
2018-06-04T11:34:27.264Z,32.35
2018-06-04T11:35:27.143Z,32.62
2018-06-04T11:36:27.170Z,33.11
2018-06-04T11:37:27.042Z,32.65
2018-06-04T11:38:27.162Z,32.51
2018-06-04T11:39:26.902Z,32.58
2018-06-04T11:40:26.897Z,32.43
2018-06-04T11:41:26.783Z,32.44
2018-06-04T11:42:26.798Z,32.21
2018-06-04T11:43:26.685Z,30.98
2018-06-04T11:44:26.743Z,30.57
2018-06-04T11:45:26.548Z,30.79
2018-06-04T11:46:26.535Z,31.18
2018-06-04T11:47:26.409Z,31.87
2018-06-04T11:48:26.473Z,31.91
2018-06-04T11:49:26.298Z,31.88
2018-06-04T11:50:26.345Z,32.56
2018-06-04T11:51:26.188Z,32.58
2018-06-04T11:52:26.140Z,32.14
2018-06-04T11:53:26.085Z,31.10
2018-06-04T11:54:26.071Z,30.42
2018-06-04T11:55:25.916Z,29.82
2018-06-04T11:56:25.992Z,29.23
2018-06-04T11:57:25.786Z,28.65
2018-06-04T11:58:25.920Z,28.32
2018-06-04T11:59:25.658Z,27.84
2018-06-04T12:00:25.616Z,27.93
2018-06-04T12:01:25.540Z,28.21
2018-06-04T12:02:25.521Z,28.91
2018-06-04T12:03:25.400Z,29.02
2018-06-04T12:04:26.470Z,29.00
2018-06-04T12:05:25.295Z,28.82
2018-06-04T12:08:07.153Z,28.52
2018-06-04T12:09:07.125Z,28.32
2018-06-04T12:10:07.019Z,28.36
2018-06-04T12:11:07.029Z,28.69
2018-06-04T12:12:06.935Z,29.00
2018-06-04T12:14:49.199Z,29.67
2018-06-04T12:15:49.144Z,29.84
2018-06-04T12:16:49.092Z,29.79
2018-06-04T12:17:48.973Z,29.52
2018-06-04T12:18:48.883Z,29.12
2018-06-04T12:19:48.896Z,29.37
2018-06-04T12:20:48.741Z,29.51
2018-06-04T12:23:30.711Z,29.79
2018-06-04T12:24:30.741Z,29.82
2018-06-04T12:25:30.594Z,29.47
2018-06-04T12:26:30.568Z,29.32
2018-06-04T12:27:30.428Z,29.14
2018-06-04T12:28:30.339Z,28.72
2018-06-04T12:29:30.379Z,28.52
2018-06-04T12:30:30.190Z,28.45
2018-06-04T12:31:30.121Z,28.36
2018-06-04T12:34:12.171Z,28.14
2018-06-04T12:35:12.372Z,28.20
2018-06-04T12:36:12.029Z,28.40
2018-06-04T12:37:12.023Z,28.50
2018-06-04T12:38:11.980Z,28.69
2018-06-04T12:40:54.218Z,29.18
2018-06-04T12:41:54.303Z,29.27
2018-06-04T12:42:54.029Z,29.11
2018-06-04T12:43:54.037Z,29.02
2018-06-04T12:44:53.944Z,28.89
2018-06-04T12:45:53.892Z,28.57
2018-06-04T12:46:53.805Z,28.55
2018-06-04T12:49:35.753Z,28.46
2018-06-04T12:50:35.792Z,28.25
2018-06-04T12:51:35.627Z,28.30
2018-06-04T12:52:35.581Z,28.36
2018-06-04T12:53:35.394Z,28.25
2018-06-04T12:54:35.367Z,28.25
2018-06-04T12:55:35.285Z,28.11
2018-06-04T12:56:35.335Z,27.99
2018-06-04T12:57:35.102Z,28.11
2018-06-04T13:00:17.213Z,28.64
2018-06-04T13:01:18.265Z,28.89
2018-06-04T13:02:17.044Z,28.97
2018-06-04T13:04:59.303Z,29.36
2018-06-04T13:07:41.225Z,28.98
2018-06-04T13:10:23.270Z,28.65
2018-06-04T13:11:23.279Z,28.64
2018-06-04T13:12:23.047Z,28.51
2018-06-04T13:13:23.003Z,28.48
2018-06-04T13:14:22.908Z,28.38
2018-06-04T13:15:22.933Z,28.35
2018-06-04T13:16:22.798Z,28.21
2018-06-04T13:17:22.735Z,28.17
2018-06-04T13:18:22.615Z,28.08
2018-06-04T13:21:04.790Z,28.06
2018-06-04T13:22:04.763Z,28.33
2018-06-04T13:23:04.561Z,28.32
2018-06-04T13:24:04.554Z,28.52
2018-06-04T13:25:04.400Z,28.55
2018-06-04T13:26:04.392Z,28.54
2018-06-04T13:27:04.307Z,28.82
2018-06-04T13:28:04.259Z,28.95
2018-06-04T13:29:04.194Z,28.82
2018-06-04T13:30:05.231Z,28.73
2018-06-04T13:31:03.971Z,28.70
2018-06-04T13:32:04.016Z,28.32
2018-06-04T13:33:03.831Z,28.08
2018-06-04T13:34:03.893Z,27.72
2018-06-04T13:35:03.715Z,27.58
2018-06-04T13:37:45.714Z,27.46
2018-06-04T13:38:45.710Z,27.35
2018-06-04T13:39:45.545Z,27.24
2018-06-04T13:40:45.605Z,27.28
2018-06-04T13:41:45.512Z,27.39
2018-06-04T13:42:45.482Z,27.34
2018-06-04T13:43:45.316Z,27.40
2018-06-04T13:44:45.227Z,27.46
2018-06-04T13:45:45.121Z,27.48
2018-06-04T13:46:45.186Z,27.68
2018-06-04T13:47:45.034Z,27.91
2018-06-04T13:48:44.955Z,27.93
2018-06-04T13:49:44.830Z,28.08
2018-06-04T13:50:44.796Z,28.21
2018-06-04T13:51:44.701Z,28.39
2018-06-04T13:52:44.689Z,28.30
2018-06-04T13:53:44.566Z,28.14
2018-06-04T13:56:26.702Z,27.84
2018-06-04T13:57:26.672Z,27.61
2018-06-04T13:58:26.578Z,27.50
2018-06-04T14:01:08.692Z,27.27
2018-06-04T14:03:50.749Z,27.30
2018-06-04T14:06:32.708Z,27.15
2018-06-04T14:07:32.653Z,27.40
2018-06-04T14:08:32.616Z,27.62
2018-06-04T14:09:32.590Z,27.76
2018-06-04T14:10:32.418Z,27.88
2018-06-04T14:11:32.406Z,27.88
2018-06-04T14:12:32.268Z,28.05
2018-06-04T14:13:33.298Z,28.27
2018-06-04T14:14:32.132Z,28.38
2018-06-04T14:17:14.223Z,28.50
2018-06-04T14:18:14.265Z,28.69
2018-06-04T14:19:14.085Z,28.70
2018-06-04T14:20:14.063Z,28.76
2018-06-04T14:21:13.951Z,28.70
2018-06-04T14:22:13.980Z,28.51
2018-06-04T14:23:13.785Z,28.50
2018-06-04T14:24:13.755Z,28.48
2018-06-04T14:25:13.648Z,28.52
2018-06-04T14:26:13.690Z,28.54
2018-06-04T14:27:13.502Z,28.70
2018-06-04T14:29:55.743Z,28.64
2018-06-04T14:30:55.702Z,28.61
2018-06-04T14:31:55.569Z,28.51
2018-06-04T14:32:55.599Z,28.39
2018-06-04T14:33:55.444Z,27.99
2018-06-04T14:34:55.413Z,27.87
2018-06-04T14:35:55.287Z,27.63
2018-06-04T14:36:55.305Z,27.48
2018-06-04T14:37:55.153Z,27.58
2018-06-04T14:38:55.103Z,27.65
2018-06-04T14:39:55.014Z,27.58
2018-06-04T14:40:55.056Z,27.59
2018-06-04T14:41:54.872Z,27.61
2018-06-04T14:42:54.841Z,27.58
2018-06-04T14:43:54.724Z,27.65
2018-06-04T14:44:54.730Z,27.61
2018-06-04T14:45:54.594Z,27.50
2018-06-04T14:46:54.546Z,27.13
2018-06-04T14:47:54.446Z,27.01
2018-06-04T14:48:54.444Z,27.03
2018-06-04T14:49:54.271Z,27.05
2018-06-04T14:50:54.295Z,26.98
2018-06-04T14:51:54.133Z,26.96
2018-06-04T14:54:36.227Z,26.84
2018-06-04T14:55:37.228Z,26.83
2018-06-04T14:56:36.107Z,26.83
2018-06-04T14:57:36.094Z,26.87
2018-06-04T14:58:35.963Z,26.78
2018-06-04T15:01:18.275Z,26.83
2018-06-04T15:02:18.188Z,27.03
2018-06-04T15:03:18.090Z,27.15
2018-06-04T15:04:18.146Z,27.13
2018-06-04T15:05:17.953Z,27.23
2018-06-04T15:06:18.999Z,27.33
2018-06-04T15:07:17.779Z,27.16
2018-06-04T15:08:17.837Z,27.33
2018-06-04T15:09:17.635Z,27.35
2018-06-04T15:11:59.766Z,27.25
2018-06-04T15:14:41.722Z,27.30
2018-06-04T15:15:41.729Z,27.27
2018-06-04T15:16:41.627Z,27.27
2018-06-04T15:17:41.541Z,27.15
2018-06-04T15:18:41.437Z,27.20
2018-06-04T15:19:41.458Z,27.06
2018-06-04T15:20:41.294Z,26.98
2018-06-04T15:21:41.292Z,27.09
2018-06-04T15:22:41.164Z,27.16
2018-06-04T15:23:41.202Z,27.09
2018-06-04T15:24:40.990Z,27.16
2018-06-04T15:27:23.257Z,27.25
2018-06-04T15:28:23.283Z,27.27
2018-06-04T15:29:23.081Z,27.16
2018-06-04T15:30:23.093Z,27.08
2018-06-04T15:31:22.935Z,27.12
2018-06-04T15:32:22.964Z,27.16
2018-06-04T15:33:22.802Z,27.18
2018-06-04T15:34:22.782Z,27.24
2018-06-04T15:35:22.661Z,27.28
2018-06-04T15:36:22.729Z,27.13
2018-06-04T15:37:22.527Z,27.18
2018-06-04T15:38:22.464Z,27.18
2018-06-04T15:39:22.369Z,27.12
2018-06-04T15:40:22.344Z,27.18
2018-06-04T15:41:22.223Z,27.13
2018-06-04T15:44:04.277Z,27.24
2018-06-04T15:45:04.212Z,27.05
2018-06-04T15:46:04.125Z,26.88
2018-06-04T15:47:04.064Z,26.76
2018-06-04T15:48:04.004Z,26.79
2018-06-04T15:49:03.959Z,26.81
2018-06-04T15:50:03.845Z,26.79
2018-06-04T15:51:03.871Z,26.81
2018-06-04T15:52:03.656Z,26.83
2018-06-04T15:53:03.655Z,26.78
2018-06-04T15:54:03.526Z,26.83
2018-06-04T15:55:03.592Z,26.88
2018-06-04T15:56:03.376Z,26.84
2018-06-04T15:57:03.340Z,26.84
2018-06-04T15:58:03.229Z,26.88
2018-06-04T15:59:04.437Z,26.79
2018-06-04T16:00:03.128Z,26.83
2018-06-04T16:01:03.167Z,26.86
2018-06-04T16:02:02.932Z,26.87
2018-06-04T16:03:07.021Z,26.73
2018-06-04T16:04:02.816Z,26.73
2018-06-04T16:06:44.747Z,26.87
2018-06-04T16:07:44.779Z,26.87
2018-06-04T16:08:44.747Z,26.91
2018-06-04T16:09:45.688Z,27.01
2018-06-04T16:10:44.446Z,27.08
2018-06-04T16:13:26.747Z,26.81
2018-06-04T16:14:26.848Z,26.78
2018-06-04T16:15:26.617Z,26.79
2018-06-04T16:16:26.618Z,26.87
2018-06-04T16:17:26.488Z,26.83
2018-06-04T16:18:26.482Z,26.79
2018-06-04T16:19:26.341Z,26.87
2018-06-04T16:20:26.306Z,26.86
2018-06-04T16:21:26.287Z,26.76
2018-06-04T16:22:26.208Z,26.69
2018-06-04T16:23:26.027Z,26.68
2018-06-04T16:24:26.414Z,26.60
2018-06-04T16:25:25.911Z,26.56
2018-06-04T16:26:25.986Z,26.66
2018-06-04T16:27:25.737Z,26.68
2018-06-04T16:28:25.811Z,26.61
2018-06-04T16:29:25.619Z,26.59
2018-06-04T16:30:25.540Z,26.57
2018-06-04T16:31:25.456Z,26.65
2018-06-04T16:32:25.480Z,26.64
2018-06-04T16:33:25.283Z,26.66
2018-06-04T16:34:25.262Z,26.69
2018-06-04T16:35:25.165Z,26.61
2018-06-04T16:38:07.273Z,26.51
2018-06-04T16:39:07.266Z,26.49
2018-06-04T16:40:07.161Z,26.54
2018-06-04T16:41:07.144Z,26.46
2018-06-04T16:42:07.115Z,26.47
2018-06-04T16:43:07.047Z,26.42
2018-06-04T16:44:06.805Z,26.44
2018-06-04T16:45:06.890Z,26.32